Time;durP1;ratioP1;P1;durP2;ratioP2;P2;SDS_P1;SDS_P2;PMS_P1;PMS_P2;Temp;Humidity;BMP_temperature;BMP_pressure;BME280_temperature;BME280_humidity;BME280_pressure;Samples;Min_cycle;Max_cycle;Signal;HPM_P1;HPM_P2
2023/03/24 00:01:00;;;;;;;27.10;13.80;;;;;;;3.86;100.00;93204.94;5091136;28;20048;-71
2023/03/24 00:03:29;;;;;;;42.38;19.83;;;;;;;3.73;100.00;93185.16;5091042;28;20048;-72
2023/03/24 00:06:00;;;;;;;38.83;19.90;;;;;;;3.76;100.00;93187.38;5091268;28;20136;-71
2023/03/24 00:08:29;;;;;;;43.05;22.52;;;;;;;3.79;100.00;93198.97;5091479;28;20416;-71
2023/03/24 00:10:59;;;;;;;38.50;19.83;;;;;;;3.74;100.00;93199.44;5078155;28;20055;-71
2023/03/24 00:13:26;;;;;;;39.45;19.38;;;;;;;3.73;100.00;93197.88;5090946;28;20139;-71
2023/03/24 00:15:52;;;;;;;21.08;12.40;;;;;;;3.69;100.00;93204.22;5091046;28;20043;-71
2023/03/24 00:18:21;;;;;;;15.38;9.73;;;;;;;3.61;100.00;93195.72;5091268;28;20095;-72
2023/03/24 00:20:50;;;;;;;23.02;13.43;;;;;;;3.51;100.00;93196.88;5090984;28;20074;-69
2023/03/24 00:23:17;;;;;;;22.35;13.10;;;;;;;3.56;100.00;93190.34;5090564;28;20047;-69
2023/03/24 00:25:44;;;;;;;22.60;13.20;;;;;;;3.50;100.00;93185.94;5091210;28;20443;-69
2023/03/24 00:28:12;;;;;;;27.63;16.55;;;;;;;3.50;100.00;93195.28;5090131;28;20052;-69
2023/03/24 00:30:41;;;;;;;36.92;21.38;;;;;;;3.48;100.00;93188.63;5090853;28;20051;-69
2023/03/24 00:33:09;;;;;;;40.70;23.05;;;;;;;3.46;100.00;93192.28;5090941;28;20389;-69
2023/03/24 00:35:35;;;;;;;44.28;24.65;;;;;;;3.46;100.00;93185.47;5090508;28;20052;-70
2023/03/24 00:38:03;;;;;;;50.30;28.83;;;;;;;3.45;100.00;93190.72;5090812;28;20048;-69
2023/03/24 00:40:30;;;;;;;55.03;28.48;;;;;;;3.41;100.00;93186.91;5090869;28;20389;-69
2023/03/24 00:42:58;;;;;;;51.65;28.88;;;;;;;3.40;100.00;93185.34;5090519;28;20079;-69
2023/03/24 00:45:24;;;;;;;60.35;33.28;;;;;;;3.40;100.00;93178.53;5090910;28;20044;-69
2023/03/24 00:47:52;;;;;;;103.05;52.20;;;;;;;3.36;100.00;93176.47;5090632;28;20044;-69
2023/03/24 00:50:25;;;;;;;69.18;37.67;;;;;;;3.32;100.00;93178.53;5090669;28;20113;-69
2023/03/24 00:52:52;;;;;;;61.13;30.75;;;;;;;3.30;100.00;93183.00;5090485;28;20071;-69
2023/03/24 00:55:21;;;;;;;34.67;21.38;;;;;;;3.15;100.00;93167.69;5090337;28;20052;-69
2023/03/24 00:57:49;;;;;;;33.58;19.85;;;;;;;2.92;100.00;93148.88;5090164;28;20040;-69
2023/03/24 01:00:19;;;;;;;26.48;16.13;;;;;;;3.10;100.00;93175.78;5090182;28;20467;-69
2023/03/24 01:02:47;;;;;;;26.50;15.38;;;;;;;3.09;100.00;93181.81;5089652;28;20500;-69
2023/03/24 01:05:16;;;;;;;36.42;21.75;;;;;;;3.01;100.00;93181.84;5090133;28;20458;-69
2023/03/24 01:07:43;;;;;;;42.50;24.70;;;;;;;2.91;100.00;93179.47;5090052;28;20404;-69
2023/03/24 01:10:14;;;;;;;44.47;25.05;;;;;;;2.86;100.00;93179.22;5090128;28;20055;-69
2023/03/24 01:12:42;;;;;;;38.55;22.67;;;;;;;2.90;100.00;93188.84;5089772;28;20036;-69
2023/03/24 01:15:13;;;;;;;41.38;24.38;;;;;;;2.92;100.00;93179.31;5089976;28;20044;-69
2023/03/24 01:17:40;;;;;;;37.80;23.50;;;;;;;2.96;100.00;93173.94;5089415;28;20048;-69
2023/03/24 01:20:10;;;;;;;41.17;23.73;;;;;;;2.79;100.00;93153.69;5085458;28;20102;-69
2023/03/24 01:22:39;;;;;;;40.55;23.90;;;;;;;2.92;100.00;93174.25;5076401;28;20139;-69
2023/03/24 01:25:08;;;;;;;36.25;19.33;;;;;;;2.84;100.00;93169.22;5088170;28;20094;-69
2023/03/24 01:27:35;;;;;;;34.38;19.92;;;;;;;2.84;100.00;93170.94;5089575;28;20482;-68
2023/03/24 01:30:05;;;;;;;25.42;16.50;;;;;;;2.81;100.00;93172.06;5089271;28;20148;-69
2023/03/24 01:32:32;;;;;;;27.55;18.45;;;;;;;2.82;100.00;93170.31;5089088;28;20093;-69
2023/03/24 01:34:59;;;;;;;24.17;15.40;;;;;;;2.81;100.00;93172.06;5089217;28;20051;-69
2023/03/24 01:37:26;;;;;;;22.40;15.25;;;;;;;2.80;100.00;93163.69;5089315;28;20048;-69
2023/03/24 01:39:53;;;;;;;22.90;14.98;;;;;;;2.80;100.00;93170.47;5088678;28;20056;-69
2023/03/24 01:42:21;;;;;;;20.63;13.07;;;;;;;2.79;100.00;93168.91;5089214;28;20052;-69
2023/03/24 01:44:50;;;;;;;28.40;17.17;;;;;;;2.76;100.00;93174.28;5088706;28;20048;-68
2023/03/24 01:47:18;;;;;;;16.38;10.68;;;;;;;2.72;100.00;93173.06;5089303;28;20060;-68
2023/03/24 01:49:50;;;;;;;14.18;10.02;;;;;;;2.63;100.00;93159.56;5088901;28;20052;-69
2023/03/24 01:52:22;;;;;;;13.82;9.82;;;;;;;2.54;100.00;93153.72;5089099;28;20090;-69
2023/03/24 01:54:53;;;;;;;11.25;8.75;;;;;;;2.55;100.00;93168.00;5089462;28;20040;-69
2023/03/24 01:57:24;;;;;;;14.95;9.88;;;;;;;2.53;100.00;93168.16;5089503;28;20408;-69
2023/03/24 01:59:55;;;;;;;17.05;10.43;;;;;;;2.51;100.00;93169.28;5089163;28;20113;-69
2023/03/24 02:02:23;;;;;;;14.75;10.15;;;;;;;2.50;100.00;93172.78;5089503;28;20048;-68
2023/03/24 02:04:54;;;;;;;13.40;7.93;;;;;;;2.46;100.00;93171.50;5076047;28;20126;-68
2023/03/24 02:07:31;;;;;;;13.73;9.50;;;;;;;2.43;100.00;93172.63;5089368;28;20044;-68
2023/03/24 02:09:58;;;;;;;12.45;8.48;;;;;;;2.43;100.00;93171.81;5088944;28;20492;-68
2023/03/24 02:12:25;;;;;;;13.48;8.82;;;;;;;2.40;100.00;93173.72;5089283;28;20060;-69
2023/03/24 02:14:53;;;;;;;12.05;8.70;;;;;;;2.37;100.00;93173.25;5089438;28;20079;-69
2023/03/24 02:17:39;;;;;;;34.10;21.23;;;;;;;2.34;100.00;93171.03;5091497;28;20036;-69
2023/03/24 02:20:30;;;;;;;25.02;15.38;;;;;;;2.18;100.00;93174.38;5093256;28;20048;-68
2023/03/24 02:23:39;;;;;;;41.42;29.27;;;;;;;2.07;100.00;93176.28;5082039;28;20051;-68
2023/03/24 02:26:38;;;;;;;35.38;23.48;;;;;;;2.11;100.00;93177.53;5093335;28;20389;-68
2023/03/24 02:29:30;;;;;;;29.25;21.25;;;;;;;2.11;100.00;93179.28;5092582;28;20044;-68
2023/03/24 02:32:21;;;;;;;41.45;32.15;;;;;;;2.08;100.00;93182.16;5092498;28;20531;-69
2023/03/24 02:35:20;;;;;;;37.58;30.27;;;;;;;2.15;100.00;93175.47;5092440;28;20051;-68
2023/03/24 02:38:17;;;;;;;36.78;25.05;;;;;;;2.23;100.00;93182.28;5078332;28;20044;-68
2023/03/24 02:40:49;;;;;;;20.00;14.15;;;;;;;2.24;100.00;93178.81;5092906;28;20051;-68
2023/03/24 02:43:33;;;;;;;17.95;13.30;;;;;;;2.22;100.00;93178.97;5084402;28;20118;-68
2023/03/24 02:46:12;;;;;;;17.33;12.45;;;;;;;2.23;100.00;93167.88;5089906;28;20093;-68
2023/03/24 02:48:53;;;;;;;13.38;8.98;;;;;;;2.18;100.00;93170.09;5093013;28;20048;-68
2023/03/24 02:51:27;;;;;;;14.60;8.93;;;;;;;2.24;100.00;93161.88;5079513;28;20052;-68
2023/03/24 02:54:04;;;;;;;11.32;8.52;;;;;;;2.26;100.00;93157.41;5080288;28;20052;-68
2023/03/24 02:56:37;;;;;;;10.75;8.25;;;;;;;2.29;100.00;93152.97;5089021;28;20049;-69
2023/03/24 02:59:06;;;;;;;14.13;9.15;;;;;;;2.37;100.00;93152.97;5083470;28;20101;-69
2023/03/24 03:01:39;;;;;;;27.20;17.55;;;;;;;2.34;100.00;93143.94;5091858;28;20044;-68
2023/03/24 03:04:11;;;;;;;19.23;13.02;;;;;;;2.25;100.00;93150.78;5078708;28;20487;-68
2023/03/24 03:06:40;;;;;;;29.75;19.55;;;;;;;2.16;100.00;93136.50;5091787;28;20047;-68
2023/03/24 03:09:11;;;;;;;18.38;13.40;;;;;;;2.14;100.00;93129.06;5091984;28;20044;-69
2023/03/24 03:11:42;;;;;;;19.35;13.00;;;;;;;2.24;100.00;93141.59;5091380;28;20093;-68
2023/03/24 03:14:11;;;;;;;21.92;15.82;;;;;;;2.34;100.00;93140.63;5092403;28;20047;-68
2023/03/24 03:16:44;;;;;;;24.20;19.40;;;;;;;2.36;100.00;93141.25;5092313;28;20052;-68
2023/03/24 03:19:16;;;;;;;23.33;16.42;;;;;;;2.32;100.00;93135.69;5092420;28;20040;-69
2023/03/24 03:21:45;;;;;;;23.42;16.92;;;;;;;2.36;100.00;93143.78;5092211;28;20052;-69
2023/03/24 03:24:18;;;;;;;23.35;15.90;;;;;;;2.44;100.00;93143.00;5092047;28;20120;-69
2023/03/24 03:26:48;;;;;;;22.05;17.00;;;;;;;2.46;100.00;93139.31;5091998;28;20040;-68
2023/03/24 03:29:20;;;;;;;22.15;16.63;;;;;;;2.47;100.00;93132.50;5090368;28;20505;-69
2023/03/24 03:31:52;;;;;;;21.85;15.80;;;;;;;2.48;100.00;93144.22;5091433;28;20054;-69
2023/03/24 03:34:27;;;;;;;19.17;13.82;;;;;;;2.46;100.00;93136.00;5100617;28;20079;-68
2023/03/24 03:37:02;;;;;;;20.48;13.43;;;;;;;2.46;100.00;93136.78;5091449;28;20048;-69
2023/03/24 03:39:33;;;;;;;19.23;13.50;;;;;;;2.45;100.00;93132.66;5091836;28;20505;-68
2023/03/24 03:42:03;;;;;;;20.33;12.35;;;;;;;2.49;100.00;93133.13;5091491;28;20293;-68
2023/03/24 03:44:31;;;;;;;18.60;12.38;;;;;;;2.46;100.00;93136.78;5091572;28;20056;-69
2023/03/24 03:46:58;;;;;;;24.30;14.43;;;;;;;2.39;100.00;93141.72;5091338;28;20385;-68
2023/03/24 03:49:25;;;;;;;23.80;15.25;;;;;;;2.32;100.00;93143.31;5091840;28;20478;-69
2023/03/24 03:51:54;;;;;;;42.58;23.52;;;;;;;2.35;100.00;93144.72;5078368;28;20155;-69
2023/03/24 03:54:23;;;;;;;36.22;21.30;;;;;;;2.12;100.00;93092.97;5091392;28;20048;-68
2023/03/24 03:56:51;;;;;;;43.25;25.95;;;;;;;2.33;100.00;93139.84;5091416;28;20044;-68
2023/03/24 03:59:28;;;;;;;23.67;15.77;;;;;;;2.19;100.00;93130.34;5091349;28;20401;-68
2023/03/24 04:01:55;;;;;;;27.35;18.60;;;;;;;2.29;100.00;93132.69;5091131;28;20055;-69
2023/03/24 04:04:56;;;;;;;25.90;16.90;;;;;;;2.33;100.00;93139.84;5090959;28;20043;-68
2023/03/24 04:07:32;;;;;;;25.90;18.30;;;;;;;2.37;100.00;93148.69;5090800;28;20568;-68
2023/03/24 04:10:09;;;;;;;29.13;18.33;;;;;;;2.31;100.00;93139.19;5091414;28;20085;-68
2023/03/24 04:12:48;;;;;;;24.90;16.77;;;;;;;2.34;100.00;93140.63;5090721;28;20098;-68
2023/03/24 04:15:35;;;;;;;24.52;17.77;;;;;;;2.35;100.00;93155.66;5091002;28;20048;-68
2023/03/24 04:18:44;;;;;;;23.92;16.77;;;;;;;2.37;100.00;93156.28;5079858;28;20051;-68
2023/03/24 04:21:32;;;;;;;28.67;18.13;;;;;;;2.32;100.00;93155.19;5090918;28;20085;-68
2023/03/24 04:24:12;;;;;;;28.70;16.38;;;;;;;2.30;100.00;93146.97;5098517;28;20134;-68
2023/03/24 04:26:48;;;;;;;53.78;28.95;;;;;;;2.20;100.00;93142.84;5090713;28;20048;-69
2023/03/24 04:29:19;;;;;;;26.83;15.50;;;;;;;2.23;100.00;93156.94;5090415;28;20044;-68
2023/03/24 04:31:52;;;;;;;24.00;14.45;;;;;;;2.21;100.00;93157.09;5090791;28;20048;-68
2023/03/24 04:34:24;;;;;;;17.35;11.38;;;;;;;2.23;100.00;93157.72;5090659;28;20508;-68
2023/03/24 04:37:01;;;;;;;19.73;11.32;;;;;;;2.20;100.00;93155.53;5090415;28;20072;-69
2023/03/24 04:39:31;;;;;;;13.27;9.25;;;;;;;2.17;100.00;93148.22;5090426;28;20094;-68
2023/03/24 04:42:00;;;;;;;15.43;10.07;;;;;;;2.18;100.00;93154.09;5089898;28;20039;-68
2023/03/24 04:44:31;;;;;;;17.80;10.60;;;;;;;2.13;100.00;93160.44;5090314;28;20066;-69
2023/03/24 04:47:02;;;;;;;16.25;9.85;;;;;;;2.13;100.00;93147.00;5082233;28;20079;-68
2023/03/24 04:49:29;;;;;;;17.25;10.40;;;;;;;2.13;100.00;93152.06;5084409;28;20058;-69
2023/03/24 04:51:56;;;;;;;16.02;9.98;;;;;;;2.15;100.00;93162.81;5090411;28;20044;-68
2023/03/24 04:54:23;;;;;;;20.55;12.07;;;;;;;2.16;100.00;93171.22;5090210;28;20056;-69
2023/03/24 04:56:52;;;;;;;20.00;10.82;;;;;;;2.18;100.00;93165.00;5090134;28;20047;-68
2023/03/24 04:59:20;;;;;;;17.48;9.73;;;;;;;2.17;100.00;93168.50;5090061;28;20048;-68
2023/03/24 05:01:48;;;;;;;16.85;10.15;;;;;;;2.22;100.00;93173.13;5090613;28;20428;-68
2023/03/24 05:04:16;;;;;;;19.27;12.18;;;;;;;2.22;100.00;93173.88;5089822;28;20098;-68
2023/03/24 05:06:45;;;;;;;17.67;12.63;;;;;;;2.11;100.00;93156.47;5090068;28;20059;-68
2023/03/24 05:09:13;;;;;;;29.92;18.67;;;;;;;2.20;100.00;93177.53;5089667;28;20098;-68
2023/03/24 05:11:40;;;;;;;32.80;22.58;;;;;;;2.23;100.00;93174.69;5089830;28;20052;-68
2023/03/24 05:14:06;;;;;;;34.78;23.20;;;;;;;2.33;100.00;93182.13;5089878;28;20109;-68
2023/03/24 05:16:33;;;;;;;29.38;18.83;;;;;;;2.42;100.00;93193.06;5089842;28;20573;-68
2023/03/24 05:19:00;;;;;;;31.80;21.02;;;;;;;2.47;100.00;93193.38;5090131;28;20040;-68
2023/03/24 05:21:28;;;;;;;32.00;20.63;;;;;;;2.52;100.00;93181.81;5083120;28;20120;-68
2023/03/24 05:23:55;;;;;;;29.33;19.95;;;;;;;2.59;100.00;93194.59;5077968;28;20052;-68
2023/03/24 05:26:22;;;;;;;28.52;18.92;;;;;;;2.66;100.00;93195.56;5088568;28;20036;-68
2023/03/24 05:28:49;;;;;;;26.10;18.60;;;;;;;2.80;100.00;93196.66;5089231;28;20090;-68
2023/03/24 05:31:15;;;;;;;28.77;18.85;;;;;;;2.86;100.00;93200.28;5089208;28;20048;-68
2023/03/24 05:33:42;;;;;;;31.45;19.73;;;;;;;2.96;100.00;93205.16;5089326;28;20040;-68
2023/03/24 05:36:10;;;;;;;32.60;19.92;;;;;;;3.02;100.00;93201.97;5089729;28;20044;-68
2023/03/24 05:38:38;;;;;;;30.70;18.13;;;;;;;3.15;100.00;93200.69;5089098;28;20089;-68
2023/03/24 05:41:05;;;;;;;28.40;16.95;;;;;;;3.28;100.00;93205.25;5089200;28;20089;-69
2023/03/24 05:43:32;;;;;;;27.80;17.60;;;;;;;3.42;100.00;93202.00;5089183;28;20055;-68
2023/03/24 05:45:59;;;;;;;24.98;16.67;;;;;;;3.57;100.00;93207.16;5089418;28;20105;-69
2023/03/24 05:48:26;;;;;;;29.33;18.10;;;;;;;3.76;100.00;93204.38;5089046;28;20051;-68
2023/03/24 05:50:53;;;;;;;28.80;17.73;;;;;;;3.97;100.00;93196.94;5088379;28;20141;-69
2023/03/24 05:53:20;;;;;;;27.15;16.85;;;;;;;4.07;100.00;93191.63;5089075;28;20044;-69
2023/03/24 05:55:48;;;;;;;26.50;15.23;;;;;;;4.28;100.00;93196.09;5089420;28;20040;-69
2023/03/24 05:58:15;;;;;;;23.45;14.82;;;;;;;4.51;100.00;93187.63;5089226;28;20045;-69
2023/03/24 06:00:42;;;;;;;25.50;15.00;;;;;;;4.70;100.00;93190.63;5089561;28;20044;-69
2023/03/24 06:03:08;;;;;;;24.63;14.30;;;;;;;4.85;100.00;93187.31;5089181;28;20462;-69
2023/03/24 06:05:35;;;;;;;24.23;15.13;;;;;;;5.05;100.00;93190.13;5088817;28;20052;-69
2023/03/24 06:08:05;;;;;;;27.75;16.50;;;;;;;5.29;100.00;93196.72;5089330;28;20085;-69
2023/03/24 06:10:32;;;;;;;37.63;19.95;;;;;;;5.49;100.00;93188.50;5089065;28;20064;-69
2023/03/24 06:13:00;;;;;;;31.60;18.77;;;;;;;5.67;100.00;93198.31;5076464;28;20451;-69
2023/03/24 06:15:27;;;;;;;30.17;19.15;;;;;;;5.72;100.00;93190.13;5088719;28;20090;-69
2023/03/24 06:17:54;;;;;;;29.38;19.30;;;;;;;5.69;100.00;93165.78;5088986;28;20054;-68
2023/03/24 06:20:21;;;;;;;35.15;20.85;;;;;;;5.66;100.00;93176.34;5089185;28;20068;-69
2023/03/24 06:22:49;;;;;;;44.20;21.33;;;;;;;5.69;100.00;93200.69;5074487;28;20114;-69
2023/03/24 06:25:19;;;;;;;45.65;23.00;;;;;;;5.88;100.00;93196.78;5084623;28;20052;-68
2023/03/24 06:27:46;;;;;;;58.20;24.27;;;;;;;5.72;100.00;93198.56;5088710;28;20048;-68
2023/03/24 06:30:16;;;;;;;62.17;23.30;;;;;;;5.85;100.00;93197.13;5088928;28;20109;-68
2023/03/24 06:32:45;;;;;;;78.63;27.10;;;;;;;5.91;100.00;93198.94;5089164;28;20055;-68
2023/03/24 06:35:12;;;;;;;66.68;24.65;;;;;;;5.97;100.00;93197.44;5088798;28;20101;-69
2023/03/24 06:37:39;;;;;;;53.88;24.55;;;;;;;6.18;100.00;93198.44;5088996;28;20059;-68
2023/03/24 06:40:09;;;;;;;52.50;21.80;;;;;;;6.45;100.00;93196.13;5089013;28;20525;-69
2023/03/24 06:42:36;;;;;;;48.35;21.52;;;;;;;6.46;100.00;93195.94;5088497;28;20063;-68
2023/03/24 06:45:03;;;;;;;50.50;21.50;;;;;;;6.81;100.00;93197.78;5088847;28;20071;-68
2023/03/24 06:47:31;;;;;;;45.53;21.33;;;;;;;6.74;100.00;93190.06;5088905;28;20090;-68
2023/03/24 06:49:58;;;;;;;40.78;18.65;;;;;;;6.95;100.00;93194.31;5088613;28;20455;-68
2023/03/24 06:52:26;;;;;;;45.92;20.92;;;;;;;7.13;100.00;93205.78;5088847;28;20040;-69
2023/03/24 06:54:53;;;;;;;37.55;17.85;;;;;;;7.48;100.00;93200.69;5088636;28;20048;-69
2023/03/24 06:57:20;;;;;;;35.92;18.23;;;;;;;7.81;100.00;93196.66;5088707;28;20129;-68
2023/03/24 06:59:47;;;;;;;33.03;17.90;;;;;;;8.15;100.00;93194.19;5088279;28;20044;-68
2023/03/24 07:02:14;;;;;;;30.25;15.95;;;;;;;8.38;100.00;93193.03;5089242;28;20093;-69
2023/03/24 07:04:42;;;;;;;30.52;16.70;;;;;;;8.57;100.00;93191.47;5092063;28;20462;-69
2023/03/24 07:07:09;;;;;;;32.78;16.30;;;;;;;8.82;100.00;93172.94;5092104;28;20089;-69
2023/03/24 07:09:36;;;;;;;31.58;17.23;;;;;;;8.93;100.00;93192.81;5091956;28;20521;-69
2023/03/24 07:12:03;;;;;;;40.03;18.88;;;;;;;8.95;100.00;93195.19;5092154;28;20040;-69
2023/03/24 07:14:29;;;;;;;45.95;20.38;;;;;;;8.99;100.00;93200.69;5092006;28;20548;-69
2023/03/24 07:16:57;;;;;;;40.22;19.42;;;;;;;9.11;100.00;93200.88;5092021;28;20048;-69
2023/03/24 07:19:24;;;;;;;56.25;22.88;;;;;;;9.35;100.00;93182.25;5091736;28;20527;-69
2023/03/24 07:21:52;;;;;;;48.10;21.23;;;;;;;9.31;100.00;93203.38;5091862;28;20202;-69
2023/03/24 07:24:19;;;;;;;44.58;19.58;;;;;;;9.40;100.00;93209.06;5091624;28;20397;-69
2023/03/24 07:26:46;;;;;;;41.75;19.73;;;;;;;9.40;100.00;93201.38;5092060;28;20040;-69
2023/03/24 07:29:13;;;;;;;42.90;18.63;;;;;;;9.93;100.00;93208.06;5091426;28;20572;-69
2023/03/24 07:31:40;;;;;;;37.58;18.08;;;;;;;10.23;99.48;93211.88;5091947;28;20048;-69
2023/03/24 07:34:07;;;;;;;50.88;19.23;;;;;;;9.96;99.90;93181.22;5091185;28;20052;-69
2023/03/24 07:36:34;;;;;;;59.08;21.85;;;;;;;10.35;100.00;93215.34;5091562;28;20052;-69
2023/03/24 07:39:05;;;;;;;47.47;18.05;;;;;;;10.74;97.43;93201.66;5091581;28;20052;-69
2023/03/24 07:41:32;;;;;;;42.20;18.52;;;;;;;11.14;97.00;93210.78;5091810;28;20093;-69
2023/03/24 07:43:59;;;;;;;41.75;17.33;;;;;;;11.53;97.05;93208.00;5091753;28;20082;-71
2023/03/24 07:46:25;;;;;;;46.28;17.08;;;;;;;11.66;94.60;93171.84;5091394;28;20093;-71
2023/03/24 07:48:52;;;;;;;41.90;18.15;;;;;;;11.69;89.38;93216.94;5091331;28;20048;-71
2023/03/24 07:51:19;;;;;;;35.90;17.05;;;;;;;11.69;88.33;93204.06;5091335;28;20044;-71
2023/03/24 07:53:46;;;;;;;44.45;16.98;;;;;;;11.85;87.79;93213.75;5091078;28;20197;-71
2023/03/24 07:56:15;;;;;;;41.05;18.88;;;;;;;12.22;90.80;93204.44;5090821;28;20044;-69
2023/03/24 07:58:42;;;;;;;46.80;17.55;;;;;;;12.52;92.12;93201.81;5091466;28;20044;-69
2023/03/24 08:01:09;;;;;;;38.05;17.02;;;;;;;12.74;85.09;93195.34;5090613;28;20040;-69
2023/03/24 08:03:36;;;;;;;42.63;18.70;;;;;;;12.66;82.74;93199.81;5091015;28;20054;-69
2023/03/24 08:06:03;;;;;;;43.50;18.10;;;;;;;12.99;86.95;93194.31;5090960;28;20093;-69
2023/03/24 08:08:30;;;;;;;38.00;14.98;;;;;;;12.49;84.94;93196.31;5090989;28;20044;-69
2023/03/24 08:10:57;;;;;;;38.28;15.35;;;;;;;12.35;84.81;93195.72;5090361;28;20036;-68
2023/03/24 08:13:25;;;;;;;29.65;13.50;;;;;;;12.52;83.78;93185.56;5090923;28;20497;-69
2023/03/24 08:15:52;;;;;;;36.03;15.90;;;;;;;12.44;83.54;93191.81;5090423;28;20094;-68
2023/03/24 08:18:20;;;;;;;33.42;14.93;;;;;;;12.54;82.39;93184.31;5090825;28;20055;-68
2023/03/24 08:20:47;;;;;;;26.92;12.93;;;;;;;12.69;83.90;93183.88;5090540;28;20128;-69
2023/03/24 08:23:14;;;;;;;24.77;10.63;;;;;;;13.08;81.49;93174.94;5090399;28;20044;-69
2023/03/24 08:25:41;;;;;;;26.77;11.13;;;;;;;13.20;80.57;93170.53;5090770;28;20090;-68
2023/03/24 08:28:07;;;;;;;25.60;11.38;;;;;;;13.57;82.80;93174.63;5090605;28;20458;-69
2023/03/24 08:30:36;;;;;;;21.17;10.63;;;;;;;13.60;77.07;93178.56;5090635;28;20048;-68
2023/03/24 08:33:03;;;;;;;24.27;10.45;;;;;;;13.57;74.93;93171.28;5090574;28;20500;-69
2023/03/24 08:35:32;;;;;;;25.33;10.02;;;;;;;13.84;74.51;93168.94;5090802;28;20455;-69
2023/03/24 08:37:59;;;;;;;17.50;8.82;;;;;;;13.94;72.26;93172.75;5090591;28;20052;-69
2023/03/24 08:40:28;;;;;;;19.65;7.80;;;;;;;14.33;72.28;93166.91;5090190;28;20085;-69
2023/03/24 08:42:58;;;;;;;16.52;8.15;;;;;;;14.60;74.42;93161.94;5090311;28;20048;-69
2023/03/24 08:45:27;;;;;;;15.85;8.80;;;;;;;14.91;75.76;93159.81;5077250;28;20093;-69
2023/03/24 08:47:55;;;;;;;19.38;9.10;;;;;;;15.30;75.50;93151.28;5090119;28;20044;-69
2023/03/24 08:50:26;;;;;;;17.38;7.18;;;;;;;15.33;67.22;93163.72;5090600;28;20105;-69
2023/03/24 08:52:54;;;;;;;26.10;8.48;;;;;;;15.68;72.14;93156.63;5090063;28;20095;-69
2023/03/24 08:55:22;;;;;;;29.42;8.90;;;;;;;15.35;70.67;93140.97;5090018;28;20048;-69
2023/03/24 08:57:49;;;;;;;19.13;7.35;;;;;;;15.74;65.86;93149.69;5090263;28;20127;-69
2023/03/24 09:00:18;;;;;;;20.83;7.18;;;;;;;15.76;63.45;93152.81;5090069;28;20094;-69
2023/03/24 09:02:46;;;;;;;16.83;6.97;;;;;;;15.71;60.70;93150.97;5089751;28;20036;-69
2023/03/24 09:05:16;;;;;;;22.92;7.45;;;;;;;16.12;60.74;93147.22;5089799;28;20559;-70
2023/03/24 09:07:43;;;;;;;24.48;7.80;;;;;;;16.50;60.88;93139.50;5089760;28;20044;-70
2023/03/24 09:10:12;;;;;;;20.02;6.72;;;;;;;16.28;59.85;93145.53;5089661;28;20048;-69
2023/03/24 09:12:39;;;;;;;16.00;5.85;;;;;;;16.03;56.65;93141.72;5089634;28;20085;-69
2023/03/24 09:15:08;;;;;;;10.43;4.97;;;;;;;16.35;60.45;93134.97;5090169;28;20416;-69
2023/03/24 09:17:35;;;;;;;7.80;4.50;;;;;;;16.49;51.95;93140.53;5089306;28;20040;-70
2023/03/24 09:20:06;;;;;;;14.38;5.50;;;;;;;16.62;54.76;93129.72;5090037;28;20048;-70
2023/03/24 09:22:36;;;;;;;12.48;5.20;;;;;;;16.90;54.37;93132.25;5089633;28;20079;-70
2023/03/24 09:25:03;;;;;;;17.00;5.65;;;;;;;17.02;52.30;93130.25;5089630;28;20504;-70
2023/03/24 09:27:30;;;;;;;13.52;5.57;;;;;;;17.32;55.82;93122.88;5075886;28;20074;-70
2023/03/24 09:29:57;;;;;;;15.10;5.28;;;;;;;17.46;53.05;93126.56;5089236;28;20052;-70
2023/03/24 09:32:23;;;;;;;12.70;5.72;;;;;;;17.77;52.40;93118.06;5089282;28;20097;-70
2023/03/24 09:34:50;;;;;;;16.58;5.25;;;;;;;16.96;51.16;93126.81;5089355;28;20101;-70
2023/03/24 09:37:17;;;;;;;12.32;5.72;;;;;;;16.67;51.93;93113.44;5088724;28;20048;-70
2023/03/24 09:39:45;;;;;;;13.82;5.40;;;;;;;16.65;50.53;93123.25;5088948;28;20060;-69
2023/03/24 09:42:20;;;;;;;13.32;5.57;;;;;;;16.81;51.97;93121.56;5089046;28;20102;-70
2023/03/24 09:44:51;;;;;;;15.90;6.88;;;;;;;16.40;51.32;93086.53;5089152;28;20101;-69
2023/03/24 09:47:28;;;;;;;15.05;5.60;;;;;;;17.09;58.22;93109.28;5089086;28;20098;-69
2023/03/24 09:49:58;;;;;;;9.73;4.63;;;;;;;17.04;58.16;93081.47;5088782;28;20044;-69
2023/03/24 09:52:30;;;;;;;8.88;3.83;;;;;;;17.15;49.47;93105.69;5089039;28;20055;-69
2023/03/24 09:55:01;;;;;;;19.38;7.10;;;;;;;17.33;50.00;93101.88;5088890;28;20052;-70
2023/03/24 09:57:32;;;;;;;11.48;4.82;;;;;;;17.52;50.06;93096.22;5088856;28;20044;-70
2023/03/24 09:59:59;;;;;;;14.07;5.60;;;;;;;17.73;53.50;93067.69;5089347;28;20094;-70
2023/03/24 10:02:28;;;;;;;17.67;5.82;;;;;;;18.36;54.55;93079.69;5089176;28;20044;-70
2023/03/24 10:04:55;;;;;;;12.73;4.65;;;;;;;18.72;51.20;93081.47;5088985;28;20093;-70
2023/03/24 10:07:28;;;;;;;10.18;4.25;;;;;;;18.88;47.54;93091.84;5088831;28;20051;-70
2023/03/24 10:09:59;;;;;;;10.60;3.80;;;;;;;18.42;47.54;93086.44;5088816;28;20116;-70
2023/03/24 10:12:34;;;;;;;12.52;5.03;;;;;;;18.90;52.57;93072.34;5088949;28;20048;-70
2023/03/24 10:15:20;;;;;;;9.63;4.45;;;;;;;19.27;52.08;93077.44;5089062;28;20097;-70
2023/03/24 10:17:57;;;;;;;7.53;3.85;;;;;;;18.99;45.32;93071.78;5089014;28;20044;-70
2023/03/24 10:20:34;;;;;;;5.88;4.03;;;;;;;19.35;48.40;93072.44;5088799;28;20105;-70
2023/03/24 10:23:10;;;;;;;11.32;4.72;;;;;;;19.26;48.00;93068.84;5089370;28;20040;-70
2023/03/24 10:25:46;;;;;;;6.97;4.80;;;;;;;18.62;43.93;93065.88;5088591;28;20040;-71
2023/03/24 10:28:16;;;;;;;;;;;;;;;17.77;45.90;93068.72;5089160;28;20112;-70
2023/03/24 10:30:44;;;;;;;7.72;3.90;;;;;;;18.03;49.59;93064.34;5088876;28;20007;-70
2023/03/24 10:33:13;;;;;;;11.50;4.20;;;;;;;18.07;46.68;93069.84;5088972;28;20052;-70
2023/03/24 10:35:44;;;;;;;10.32;4.95;;;;;;;18.22;51.02;93056.03;5088789;28;20087;-70
2023/03/24 10:38:17;;;;;;;14.77;4.80;;;;;;;18.51;45.30;93067.72;5091099;28;20044;-70
2023/03/24 10:40:46;;;;;;;10.90;4.45;;;;;;;18.69;45.69;93055.97;5092514;28;20048;-70
2023/03/24 10:43:14;;;;;;;36.13;6.55;;;;;;;19.02;50.58;93058.25;5092920;28;20206;-70
2023/03/24 10:45:43;;;;;;;13.40;5.03;;;;;;;19.16;45.87;93054.03;5092738;28;20047;-70
2023/03/24 10:48:13;;;;;;;12.57;5.63;;;;;;;19.29;45.26;93057.09;5092951;28;20079;-70
2023/03/24 10:50:44;;;;;;;11.52;4.43;;;;;;;19.47;49.09;93040.09;5092454;28;20076;-70
2023/03/24 10:53:18;;;;;;;4.95;2.83;;;;;;;18.58;39.16;93054.44;5092270;28;20052;-71
2023/03/24 10:55:47;;;;;;;13.02;4.97;;;;;;;19.19;48.22;93053.50;5092585;28;20056;-70
2023/03/24 10:58:29;;;;;;;13.57;4.60;;;;;;;19.47;42.73;93045.28;5091964;28;20431;-70
2023/03/24 11:00:58;;;;;;;13.65;5.05;;;;;;;19.83;46.81;93050.31;5092396;28;20048;-70
2023/03/24 11:03:28;;;;;;;11.35;4.20;;;;;;;19.59;43.76;93037.16;5092002;28;20085;-70
2023/03/24 11:06:00;;;;;;;6.85;3.08;;;;;;;19.04;39.80;93049.16;5091925;28;20052;-71
2023/03/24 11:08:31;;;;;;;10.35;3.60;;;;;;;18.69;43.37;93045.56;5092055;28;20496;-70
2023/03/24 11:10:59;;;;;;;10.27;2.63;;;;;;;18.82;43.02;93039.81;5091401;28;20036;-70
2023/03/24 11:13:30;;;;;;;5.65;2.30;;;;;;;19.12;38.46;93039.97;5092134;28;20044;-71
2023/03/24 11:16:05;;;;;;;7.90;1.85;;;;;;;19.31;37.73;93001.09;5092221;28;20094;-70
2023/03/24 11:18:33;;;;;;;7.43;2.65;;;;;;;19.84;39.65;93032.81;5092000;28;20493;-70
2023/03/24 11:21:03;;;;;;;3.72;1.83;;;;;;;19.45;35.54;93032.53;5078829;28;20054;-70
2023/03/24 11:23:31;;;;;;;5.35;1.42;;;;;;;18.88;33.58;93032.00;5091674;28;20554;-70
2023/03/24 11:26:09;;;;;;;6.78;2.20;;;;;;;18.51;33.91;92993.06;5092140;28;20048;-70
2023/03/24 11:28:40;;;;;;;9.65;2.92;;;;;;;18.55;35.27;93019.31;5088228;28;20109;-71
2023/03/24 11:31:09;;;;;;;5.47;2.28;;;;;;;18.63;36.23;93012.81;5090197;28;20044;-70
2023/03/24 11:33:44;;;;;;;6.30;2.72;;;;;;;19.03;38.23;93002.53;5089881;28;20044;-70
2023/03/24 11:36:41;;;;;;;8.13;2.67;;;;;;;19.05;38.57;93009.06;5091780;28;20063;-71